This is the latest recevied weather packets stored in our database for station/object IK1AMC-3. If no packets are shown the sender has not sent any weather packets the latest 10 day(s).
| Time | Temp. | Humidity | Pressure | Rain* | Wind** | Luminosity | Snow |
|---|---|---|---|---|---|---|---|
| 1777823869 | 20° C | 61% | 1017.9 hPa | - | - | - | - |
| 1777822668 | 19.44° C | 62% | 1017.8 hPa | - | - | - | - |
| 1777821466 | 20° C | 59% | 1018 hPa | - | - | - | - |
| 1777820265 | 20.56° C | 56% | 1018.2 hPa | - | - | - | - |
| 1777819063 | 20.56° C | 55% | 1018.4 hPa | - | - | - | - |
| 1777817862 | 20° C | 55% | 1018.6 hPa | - | - | - | - |
| 1777816661 | 20.56° C | 53% | 1018.8 hPa | - | - | - | - |
| 1777815460 | 20° C | 55% | 1019.1 hPa | - | - | - | - |
| 1777814258 | 20.56° C | 52% | 1019.3 hPa | - | - | - | - |
| 1777813057 | 20.56° C | 52% | 1019.5 hPa | - | - | - | - |
| 1777811856 | 18.89° C | 57% | 1019.7 hPa | - | - | - | - |
| 1777810655 | 20.56° C | 54% | 1019.9 hPa | - | - | - | - |
| 1777809453 | 19.44° C | 58% | 1020.1 hPa | - | - | - | - |
| 1777808252 | 20° C | 55% | 1019.8 hPa | - | - | - | - |
| 1777807051 | 21.11° C | 54% | 1020 hPa | - | - | - | - |
| 1777805850 | 20° C | 57% | 1020.1 hPa | - | - | - | - |
| 1777804648 | 20.56° C | 54% | 1020.2 hPa | - | - | - | - |
| 1777803447 | 20.56° C | 53% | 1020.1 hPa | - | - | - | - |
| 1777802246 | 20° C | 54% | 1019.9 hPa | - | - | - | - |
| 1777801044 | 19.44° C | 55% | 1020 hPa | - | - | - | - |
| 1777799843 | 18.89° C | 58% | 1020.2 hPa | - | - | - | - |
| 1777798642 | 18.33° C | 59% | 1020.1 hPa | - | - | - | - |
| 1777797440 | 18.33° C | 59% | 1020.1 hPa | - | - | - | - |
| 1777796239 | 17.22° C | 63% | 1020 hPa | - | - | - | - |
| 1777795038 | 17.78° C | 62% | 1019.8 hPa | - | - | - | - |
* Rain since midnight (hover to see other rain measurements)
** Current wind speed in m/s (hover to see current wind gust speed)